sensor_id;sensor_type;location;lat;lon;timestamp;pressure;altitude;pressure_sealevel;temperature;humidity
44453;BME280;30155;52.164;21.236;2023-07-28T00:00:44;99717.68;;;13.39;68.87
44453;BME280;30155;52.164;21.236;2023-07-28T00:05:36;99718.72;;;13.40;69.14
44453;BME280;30155;52.164;21.236;2023-07-28T00:10:28;99719.08;;;13.40;69.19
44453;BME280;30155;52.164;21.236;2023-07-28T00:15:19;99719.58;;;13.40;69.38
44453;BME280;30155;52.164;21.236;2023-07-28T00:20:11;99721.69;;;13.40;69.52
44453;BME280;30155;52.164;21.236;2023-07-28T00:25:03;99720.77;;;13.42;69.74
44453;BME280;30155;52.164;21.236;2023-07-28T00:29:55;99719.02;;;13.44;69.72
44453;BME280;30155;52.164;21.236;2023-07-28T00:34:46;99715.33;;;13.47;69.99
44453;BME280;30155;52.164;21.236;2023-07-28T00:39:38;99710.21;;;13.53;70.14
44453;BME280;30155;52.164;21.236;2023-07-28T00:44:30;99706.02;;;13.55;70.16
44453;BME280;30155;52.164;21.236;2023-07-28T00:49:21;99704.10;;;13.55;70.20
44453;BME280;30155;52.164;21.236;2023-07-28T00:54:13;99700.63;;;13.54;70.50
44453;BME280;30155;52.164;21.236;2023-07-28T00:59:05;99691.20;;;13.57;70.52
44453;BME280;30155;52.164;21.236;2023-07-28T01:03:57;99686.67;;;13.56;70.63
44453;BME280;30155;52.164;21.236;2023-07-28T01:08:57;99687.15;;;13.60;70.72
44453;BME280;30155;52.164;21.236;2023-07-28T01:13:52;99680.01;;;13.59;70.79
44453;BME280;30155;52.164;21.236;2023-07-28T01:18:44;99682.27;;;13.60;71.00
44453;BME280;30155;52.164;21.236;2023-07-28T01:23:46;99671.80;;;13.62;71.26
44453;BME280;30155;52.164;21.236;2023-07-28T01:28:43;99667.64;;;13.61;71.33
44453;BME280;30155;52.164;21.236;2023-07-28T01:33:35;99660.50;;;13.62;71.53
44453;BME280;30155;52.164;21.236;2023-07-28T01:38:27;99649.49;;;13.64;71.44
44453;BME280;30155;52.164;21.236;2023-07-28T01:43:19;99647.23;;;13.65;71.55
44453;BME280;30155;52.164;21.236;2023-07-28T01:48:11;99643.88;;;13.67;71.61
44453;BME280;30155;52.164;21.236;2023-07-28T01:53:05;99642.52;;;13.65;71.54
44453;BME280;30155;52.164;21.236;2023-07-28T01:57:58;99643.43;;;13.62;71.75
44453;BME280;30155;52.164;21.236;2023-07-28T02:02:51;99637.49;;;13.63;71.88
44453;BME280;30155;52.164;21.236;2023-07-28T02:07:43;99634.67;;;13.65;71.91
44453;BME280;30155;52.164;21.236;2023-07-28T02:12:35;99638.52;;;13.65;72.06
44453;BME280;30155;52.164;21.236;2023-07-28T02:17:26;99643.89;;;13.66;72.12
44453;BME280;30155;52.164;21.236;2023-07-28T02:22:18;99641.94;;;13.69;72.16
44453;BME280;30155;52.164;21.236;2023-07-28T02:27:09;99636.69;;;13.71;72.17
44453;BME280;30155;52.164;21.236;2023-07-28T02:32:01;99633.02;;;13.73;72.13
44453;BME280;30155;52.164;21.236;2023-07-28T02:36:52;99626.89;;;13.75;72.18
44453;BME280;30155;52.164;21.236;2023-07-28T02:41:44;99627.91;;;13.78;72.34
44453;BME280;30155;52.164;21.236;2023-07-28T02:46:35;99618.34;;;13.77;72.42
44453;BME280;30155;52.164;21.236;2023-07-28T02:51:28;99612.93;;;13.78;72.46
44453;BME280;30155;52.164;21.236;2023-07-28T02:56:20;99613.59;;;13.80;72.75
44453;BME280;30155;52.164;21.236;2023-07-28T03:01:12;99622.45;;;13.83;72.70
44453;BME280;30155;52.164;21.236;2023-07-28T03:06:04;99624.66;;;13.86;72.83
44453;BME280;30155;52.164;21.236;2023-07-28T03:10:58;99629.02;;;13.85;72.93
44453;BME280;30155;52.164;21.236;2023-07-28T03:15:50;99618.53;;;13.88;73.21
44453;BME280;30155;52.164;21.236;2023-07-28T03:20:43;99604.55;;;13.91;73.26
44453;BME280;30155;52.164;21.236;2023-07-28T03:25:34;99609.95;;;13.92;73.54
44453;BME280;30155;52.164;21.236;2023-07-28T03:30:26;99603.68;;;13.91;73.75
44453;BME280;30155;52.164;21.236;2023-07-28T03:35:17;99610.63;;;13.93;73.88
44453;BME280;30155;52.164;21.236;2023-07-28T03:40:14;99605.69;;;13.97;73.92
44453;BME280;30155;52.164;21.236;2023-07-28T03:45:13;99592.91;;;14.00;73.94
44453;BME280;30155;52.164;21.236;2023-07-28T03:50:05;99592.16;;;14.05;73.94
44453;BME280;30155;52.164;21.236;2023-07-28T03:54:56;99594.89;;;14.08;74.03
44453;BME280;30155;52.164;21.236;2023-07-28T03:59:48;99590.11;;;14.13;74.08
44453;BME280;30155;52.164;21.236;2023-07-28T04:04:39;99590.73;;;14.19;74.15
44453;BME280;30155;52.164;21.236;2023-07-28T04:09:31;99586.08;;;14.26;74.03
44453;BME280;30155;52.164;21.236;2023-07-28T04:14:22;99581.48;;;14.40;73.79
44453;BME280;30155;52.164;21.236;2023-07-28T04:19:14;99578.82;;;14.53;73.82
44453;BME280;30155;52.164;21.236;2023-07-28T04:24:09;99575.55;;;14.62;73.75
44453;BME280;30155;52.164;21.236;2023-07-28T04:29:04;99575.09;;;14.69;73.51
44453;BME280;30155;52.164;21.236;2023-07-28T04:33:56;99571.11;;;14.77;73.40
44453;BME280;30155;52.164;21.236;2023-07-28T04:38:48;99573.09;;;14.83;73.41
44453;BME280;30155;52.164;21.236;2023-07-28T04:43:40;99560.80;;;14.88;72.96
44453;BME280;30155;52.164;21.236;2023-07-28T04:48:31;99560.13;;;14.95;72.89
44453;BME280;30155;52.164;21.236;2023-07-28T04:53:24;99552.98;;;15.03;72.53
44453;BME280;30155;52.164;21.236;2023-07-28T04:58:21;99551.56;;;15.13;72.47
44453;BME280;30155;52.164;21.236;2023-07-28T05:03:15;99546.23;;;15.18;72.12
44453;BME280;30155;52.164;21.236;2023-07-28T05:08:12;99544.80;;;15.28;71.81
44453;BME280;30155;52.164;21.236;2023-07-28T05:13:04;99548.91;;;15.40;71.46
44453;BME280;30155;52.164;21.236;2023-07-28T05:17:56;99548.52;;;15.50;71.22
44453;BME280;30155;52.164;21.236;2023-07-28T05:23:11;99544.84;;;15.59;70.95
44453;BME280;30155;52.164;21.236;2023-07-28T05:28:03;99539.04;;;15.68;71.03
44453;BME280;30155;52.164;21.236;2023-07-28T05:32:56;99531.55;;;15.75;70.93
44453;BME280;30155;52.164;21.236;2023-07-28T05:37:57;99527.42;;;15.81;70.29
44453;BME280;30155;52.164;21.236;2023-07-28T05:42:48;99522.07;;;15.93;70.30
44453;BME280;30155;52.164;21.236;2023-07-28T05:47:40;99526.77;;;16.01;69.80
44453;BME280;30155;52.164;21.236;2023-07-28T05:52:32;99517.52;;;16.14;69.81
44453;BME280;30155;52.164;21.236;2023-07-28T05:57:23;99516.95;;;16.30;69.73
44453;BME280;30155;52.164;21.236;2023-07-28T06:02:16;99518.49;;;16.45;69.35
44453;BME280;30155;52.164;21.236;2023-07-28T06:07:14;99521.80;;;16.58;69.13
44453;BME280;30155;52.164;21.236;2023-07-28T06:12:06;99523.61;;;16.70;68.91
44453;BME280;30155;52.164;21.236;2023-07-28T06:16:58;99523.67;;;16.81;68.77
44453;BME280;30155;52.164;21.236;2023-07-28T06:21:53;99524.51;;;16.89;68.43
44453;BME280;30155;52.164;21.236;2023-07-28T06:26:45;99521.52;;;16.96;68.55
44453;BME280;30155;52.164;21.236;2023-07-28T06:31:37;99522.25;;;17.01;68.38
44453;BME280;30155;52.164;21.236;2023-07-28T06:36:28;99523.88;;;17.11;68.09
44453;BME280;30155;52.164;21.236;2023-07-28T06:41:23;99519.80;;;17.25;68.01
44453;BME280;30155;52.164;21.236;2023-07-28T06:46:20;99521.67;;;17.39;67.51
44453;BME280;30155;52.164;21.236;2023-07-28T06:51:13;99523.92;;;17.46;67.33
44453;BME280;30155;52.164;21.236;2023-07-28T06:56:06;99529.94;;;17.49;67.24
44453;BME280;30155;52.164;21.236;2023-07-28T07:00:57;99528.09;;;17.52;67.06
44453;BME280;30155;52.164;21.236;2023-07-28T07:05:49;99526.64;;;17.61;66.85
44453;BME280;30155;52.164;21.236;2023-07-28T07:10:47;99516.52;;;17.70;66.78
44453;BME280;30155;52.164;21.236;2023-07-28T07:15:39;99507.69;;;17.78;66.99
44453;BME280;30155;52.164;21.236;2023-07-28T07:20:34;99498.29;;;17.81;67.14
44453;BME280;30155;52.164;21.236;2023-07-28T07:25:26;99507.35;;;17.77;67.16
44453;BME280;30155;52.164;21.236;2023-07-28T07:30:18;99515.70;;;17.68;67.50
44453;BME280;30155;52.164;21.236;2023-07-28T07:35:11;99519.96;;;17.61;68.17
44453;BME280;30155;52.164;21.236;2023-07-28T07:40:05;99529.40;;;17.44;68.82
44453;BME280;30155;52.164;21.236;2023-07-28T07:44:58;99530.23;;;17.28;69.61
44453;BME280;30155;52.164;21.236;2023-07-28T07:49:49;99529.82;;;17.18;70.29
44453;BME280;30155;52.164;21.236;2023-07-28T07:54:40;99533.09;;;17.08;70.69
44453;BME280;30155;52.164;21.236;2023-07-28T07:59:32;99526.94;;;16.96;70.92
44453;BME280;30155;52.164;21.236;2023-07-28T08:04:27;99529.66;;;16.86;71.46
44453;BME280;30155;52.164;21.236;2023-07-28T08:09:19;99529.16;;;16.78;71.97
44453;BME280;30155;52.164;21.236;2023-07-28T08:14:10;99525.08;;;16.80;72.22
44453;BME280;30155;52.164;21.236;2023-07-28T08:19:02;99528.91;;;17.07;72.45
44453;BME280;30155;52.164;21.236;2023-07-28T08:23:53;99528.34;;;17.14;72.40
44453;BME280;30155;52.164;21.236;2023-07-28T08:28:45;99528.23;;;17.12;72.46
44453;BME280;30155;52.164;21.236;2023-07-28T08:33:36;99525.98;;;17.18;72.72
44453;BME280;30155;52.164;21.236;2023-07-28T08:38:28;99526.20;;;17.28;73.20
44453;BME280;30155;52.164;21.236;2023-07-28T08:43:19;99513.68;;;17.48;73.34
44453;BME280;30155;52.164;21.236;2023-07-28T08:48:11;99506.89;;;17.69;73.25
44453;BME280;30155;52.164;21.236;2023-07-28T08:53:03;99503.14;;;18.00;72.93
44453;BME280;30155;52.164;21.236;2023-07-28T08:57:54;99507.63;;;18.08;72.84
44453;BME280;30155;52.164;21.236;2023-07-28T09:02:49;99511.30;;;18.08;72.76
44453;BME280;30155;52.164;21.236;2023-07-28T09:07:42;99507.70;;;18.11;72.40
44453;BME280;30155;52.164;21.236;2023-07-28T09:12:34;99507.05;;;17.98;72.47
44453;BME280;30155;52.164;21.236;2023-07-28T09:17:25;99498.41;;;18.05;72.90
44453;BME280;30155;52.164;21.236;2023-07-28T09:22:18;99494.30;;;18.28;72.60
44453;BME280;30155;52.164;21.236;2023-07-28T09:27:19;99493.61;;;18.44;72.39
44453;BME280;30155;52.164;21.236;2023-07-28T09:32:11;99487.08;;;18.50;72.32
44453;BME280;30155;52.164;21.236;2023-07-28T09:37:05;99494.80;;;18.55;72.36
44453;BME280;30155;52.164;21.236;2023-07-28T09:41:56;99492.77;;;18.53;72.40
44453;BME280;30155;52.164;21.236;2023-07-28T09:46:53;99486.77;;;18.68;72.50
44453;BME280;30155;52.164;21.236;2023-07-28T09:51:48;99488.92;;;18.82;72.13
44453;BME280;30155;52.164;21.236;2023-07-28T09:56:41;99487.34;;;18.83;72.00
44453;BME280;30155;52.164;21.236;2023-07-28T10:01:33;99479.48;;;18.81;72.05
44453;BME280;30155;52.164;21.236;2023-07-28T10:06:26;99477.06;;;18.95;71.76
44453;BME280;30155;52.164;21.236;2023-07-28T10:11:18;99474.38;;;18.92;71.93
44453;BME280;30155;52.164;21.236;2023-07-28T10:16:10;99465.74;;;18.82;71.88
44453;BME280;30155;52.164;21.236;2023-07-28T10:21:15;99463.86;;;19.00;71.54
44453;BME280;30155;52.164;21.236;2023-07-28T10:26:09;99463.72;;;19.14;71.17
44453;BME280;30155;52.164;21.236;2023-07-28T10:31:01;99463.63;;;19.12;70.86
44453;BME280;30155;52.164;21.236;2023-07-28T10:35:53;99460.68;;;19.01;70.90
44453;BME280;30155;52.164;21.236;2023-07-28T10:40:45;99458.39;;;19.06;71.08
44453;BME280;30155;52.164;21.236;2023-07-28T10:45:37;99444.79;;;19.35;70.80
44453;BME280;30155;52.164;21.236;2023-07-28T10:50:30;99440.23;;;19.53;70.64
44453;BME280;30155;52.164;21.236;2023-07-28T10:55:24;99436.04;;;19.48;70.58
44453;BME280;30155;52.164;21.236;2023-07-28T11:00:18;99436.48;;;19.37;70.41
44453;BME280;30155;52.164;21.236;2023-07-28T11:05:11;99438.63;;;19.22;70.54
44453;BME280;30155;52.164;21.236;2023-07-28T11:10:03;99441.33;;;19.16;70.77
44453;BME280;30155;52.164;21.236;2023-07-28T11:14:57;99427.90;;;19.31;70.61
44453;BME280;30155;52.164;21.236;2023-07-28T11:19:49;99422.67;;;19.65;70.57
44453;BME280;30155;52.164;21.236;2023-07-28T11:24:41;99430.06;;;19.78;70.23
44453;BME280;30155;52.164;21.236;2023-07-28T11:29:33;99428.35;;;19.68;70.15
44453;BME280;30155;52.164;21.236;2023-07-28T11:34:24;99429.52;;;19.57;70.30
44453;BME280;30155;52.164;21.236;2023-07-28T11:39:16;99430.55;;;19.57;70.39
44453;BME280;30155;52.164;21.236;2023-07-28T11:44:08;99429.31;;;20.21;69.96
44453;BME280;30155;52.164;21.236;2023-07-28T11:49:17;99416.75;;;20.95;68.98
44453;BME280;30155;52.164;21.236;2023-07-28T11:54:14;99414.42;;;21.07;68.48
44453;BME280;30155;52.164;21.236;2023-07-28T11:59:05;99408.91;;;21.88;67.76
44453;BME280;30155;52.164;21.236;2023-07-28T12:03:57;99412.34;;;22.32;66.86
44453;BME280;30155;52.164;21.236;2023-07-28T12:08:51;99412.42;;;21.96;66.20
44453;BME280;30155;52.164;21.236;2023-07-28T12:13:50;99402.66;;;22.41;65.88
44453;BME280;30155;52.164;21.236;2023-07-28T12:18:45;99399.17;;;22.67;64.32
44453;BME280;30155;52.164;21.236;2023-07-28T12:23:40;99390.94;;;22.92;64.28
44453;BME280;30155;52.164;21.236;2023-07-28T12:28:34;99389.37;;;23.74;64.45
44453;BME280;30155;52.164;21.236;2023-07-28T12:33:41;99392.56;;;24.13;62.08
44453;BME280;30155;52.164;21.236;2023-07-28T12:38:40;99392.27;;;23.97;61.83
44453;BME280;30155;52.164;21.236;2023-07-28T12:43:35;99400.31;;;23.62;61.82
44453;BME280;30155;52.164;21.236;2023-07-28T12:48:33;99401.25;;;23.30;61.37
44453;BME280;30155;52.164;21.236;2023-07-28T12:53:56;99400.84;;;23.47;61.51
44453;BME280;30155;52.164;21.236;2023-07-28T12:58:50;99406.70;;;24.10;60.87
44453;BME280;30155;52.164;21.236;2023-07-28T13:03:44;99413.82;;;23.48;60.01
44453;BME280;30155;52.164;21.236;2023-07-28T13:08:36;99427.84;;;22.76;60.82
44453;BME280;30155;52.164;21.236;2023-07-28T13:13:30;99426.41;;;22.43;61.64
44453;BME280;30155;52.164;21.236;2023-07-28T13:18:33;99426.47;;;22.14;62.58
44453;BME280;30155;52.164;21.236;2023-07-28T13:23:25;99424.19;;;21.86;63.17
44453;BME280;30155;52.164;21.236;2023-07-28T13:28:17;99427.83;;;21.63;63.26
44453;BME280;30155;52.164;21.236;2023-07-28T13:33:09;99428.02;;;21.47;63.59
44453;BME280;30155;52.164;21.236;2023-07-28T13:38:06;99436.21;;;21.42;63.77
44453;BME280;30155;52.164;21.236;2023-07-28T13:43:05;99438.40;;;21.55;63.46
44453;BME280;30155;52.164;21.236;2023-07-28T13:48:08;99437.17;;;21.74;63.21
44453;BME280;30155;52.164;21.236;2023-07-28T13:53:15;99443.64;;;21.60;63.41
44453;BME280;30155;52.164;21.236;2023-07-28T13:58:18;99444.31;;;21.38;63.77
44453;BME280;30155;52.164;21.236;2023-07-28T14:03:14;99439.95;;;21.26;63.86
44453;BME280;30155;52.164;21.236;2023-07-28T14:08:12;99427.92;;;21.57;64.33
44453;BME280;30155;52.164;21.236;2023-07-28T14:13:05;99421.86;;;22.01;63.83
44453;BME280;30155;52.164;21.236;2023-07-28T14:17:56;99429.73;;;22.20;63.70
44453;BME280;30155;52.164;21.236;2023-07-28T14:22:48;99431.02;;;22.26;63.63
44453;BME280;30155;52.164;21.236;2023-07-28T14:27:39;99427.96;;;22.09;63.60
44453;BME280;30155;52.164;21.236;2023-07-28T14:32:31;99421.82;;;21.91;63.72
44453;BME280;30155;52.164;21.236;2023-07-28T14:37:22;99421.61;;;21.71;63.96
44453;BME280;30155;52.164;21.236;2023-07-28T14:42:14;99411.01;;;21.57;64.24
44453;BME280;30155;52.164;21.236;2023-07-28T14:47:07;99411.52;;;21.61;64.47
44453;BME280;30155;52.164;21.236;2023-07-28T15:04:41;99406.14;;;21.29;65.13
44453;BME280;30155;52.164;21.236;2023-07-28T15:09:32;99409.61;;;21.15;65.61
44453;BME280;30155;52.164;21.236;2023-07-28T15:14:23;99407.66;;;21.01;65.90
44453;BME280;30155;52.164;21.236;2023-07-28T15:19:15;99417.86;;;20.86;66.26
44453;BME280;30155;52.164;21.236;2023-07-28T15:24:07;99423.94;;;20.72;66.71
44453;BME280;30155;52.164;21.236;2023-07-28T15:29:27;99432.17;;;20.61;67.23
44453;BME280;30155;52.164;21.236;2023-07-28T15:35:07;99432.66;;;20.46;68.40
44453;BME280;30155;52.164;21.236;2023-07-28T15:39:59;99430.02;;;20.29;69.17
44453;BME280;30155;52.164;21.236;2023-07-28T15:44:53;99439.00;;;20.13;69.77
44453;BME280;30155;52.164;21.236;2023-07-28T15:49:54;99447.80;;;19.97;70.68
44453;BME280;30155;52.164;21.236;2023-07-28T15:54:46;99436.96;;;19.82;71.43
44453;BME280;30155;52.164;21.236;2023-07-28T15:59:37;99427.27;;;19.69;72.36
44453;BME280;30155;52.164;21.236;2023-07-28T16:04:29;99438.23;;;19.59;73.08
44453;BME280;30155;52.164;21.236;2023-07-28T16:09:22;99445.92;;;19.51;73.57
44453;BME280;30155;52.164;21.236;2023-07-28T16:14:13;99435.14;;;19.44;73.90
44453;BME280;30155;52.164;21.236;2023-07-28T16:19:05;99444.36;;;19.37;74.66
44453;BME280;30155;52.164;21.236;2023-07-28T16:23:57;99444.52;;;19.29;74.89
44453;BME280;30155;52.164;21.236;2023-07-28T16:28:49;99447.32;;;19.20;75.08
44453;BME280;30155;52.164;21.236;2023-07-28T16:33:41;99459.73;;;19.12;75.12
44453;BME280;30155;52.164;21.236;2023-07-28T16:38:33;99454.22;;;19.14;75.30
44453;BME280;30155;52.164;21.236;2023-07-28T16:43:24;99456.80;;;19.25;75.36
44453;BME280;30155;52.164;21.236;2023-07-28T16:48:16;99455.12;;;19.31;75.46
44453;BME280;30155;52.164;21.236;2023-07-28T16:53:07;99455.95;;;19.37;75.23
44453;BME280;30155;52.164;21.236;2023-07-28T16:57:59;99462.11;;;19.37;75.01
44453;BME280;30155;52.164;21.236;2023-07-28T17:02:51;99471.76;;;19.28;74.98
44453;BME280;30155;52.164;21.236;2023-07-28T17:07:42;99473.91;;;19.22;75.05
44453;BME280;30155;52.164;21.236;2023-07-28T17:12:34;99478.25;;;19.19;75.29
44453;BME280;30155;52.164;21.236;2023-07-28T17:17:26;99480.45;;;19.12;75.26
44453;BME280;30155;52.164;21.236;2023-07-28T17:22:17;99475.00;;;19.03;75.57
44453;BME280;30155;52.164;21.236;2023-07-28T17:27:09;99482.45;;;18.96;75.80
44453;BME280;30155;52.164;21.236;2023-07-28T17:32:00;99476.30;;;18.91;76.00
44453;BME280;30155;52.164;21.236;2023-07-28T17:36:52;99479.94;;;18.98;76.23
44453;BME280;30155;52.164;21.236;2023-07-28T17:41:44;99482.74;;;19.08;76.29
44453;BME280;30155;52.164;21.236;2023-07-28T17:46:35;99472.27;;;19.15;76.43
44453;BME280;30155;52.164;21.236;2023-07-28T17:51:27;99471.16;;;19.16;76.58
44453;BME280;30155;52.164;21.236;2023-07-28T17:56:19;99477.34;;;19.06;76.79
44453;BME280;30155;52.164;21.236;2023-07-28T18:01:11;99485.83;;;18.90;76.92
44453;BME280;30155;52.164;21.236;2023-07-28T18:06:02;99493.08;;;18.74;77.24
44453;BME280;30155;52.164;21.236;2023-07-28T18:10:54;99501.51;;;18.59;77.47
44453;BME280;30155;52.164;21.236;2023-07-28T18:15:45;99503.55;;;18.45;77.61
44453;BME280;30155;52.164;21.236;2023-07-28T18:20:37;99507.09;;;18.34;77.87
44453;BME280;30155;52.164;21.236;2023-07-28T18:25:29;99509.95;;;18.27;78.15
44453;BME280;30155;52.164;21.236;2023-07-28T18:30:21;99508.20;;;18.22;78.40
44453;BME280;30155;52.164;21.236;2023-07-28T18:35:13;99510.31;;;18.17;78.69
44453;BME280;30155;52.164;21.236;2023-07-28T18:40:06;99518.23;;;18.11;78.85
44453;BME280;30155;52.164;21.236;2023-07-28T18:51:20;99528.02;;;18.01;79.26
44453;BME280;30155;52.164;21.236;2023-07-28T19:03:09;99543.17;;;17.87;79.44
44453;BME280;30155;52.164;21.236;2023-07-28T19:35:54;99555.09;;;17.34;79.43
44453;BME280;30155;52.164;21.236;2023-07-28T19:42:31;99558.76;;;17.22;79.52
44453;BME280;30155;52.164;21.236;2023-07-28T20:08:17;99591.85;;;16.83;79.54
44453;BME280;30155;52.164;21.236;2023-07-28T20:13:09;99598.38;;;16.80;79.93
44453;BME280;30155;52.164;21.236;2023-07-28T20:18:00;99598.14;;;16.76;80.02
44453;BME280;30155;52.164;21.236;2023-07-28T20:22:53;99601.79;;;16.71;79.90
44453;BME280;30155;52.164;21.236;2023-07-28T20:27:47;99600.21;;;16.64;79.94
44453;BME280;30155;52.164;21.236;2023-07-28T20:32:39;99599.65;;;16.59;80.26
44453;BME280;30155;52.164;21.236;2023-07-28T20:37:40;99603.33;;;16.52;80.09
44453;BME280;30155;52.164;21.236;2023-07-28T20:42:46;99601.36;;;16.46;80.03
44453;BME280;30155;52.164;21.236;2023-07-28T20:47:37;99607.42;;;16.42;80.24
44453;BME280;30155;52.164;21.236;2023-07-28T20:52:29;99612.24;;;16.37;80.12
44453;BME280;30155;52.164;21.236;2023-07-28T20:57:21;99618.50;;;16.32;80.14
44453;BME280;30155;52.164;21.236;2023-07-28T21:02:22;99618.27;;;16.27;80.04
44453;BME280;30155;52.164;21.236;2023-07-28T21:07:15;99624.46;;;16.24;80.28
44453;BME280;30155;52.164;21.236;2023-07-28T21:12:07;99627.38;;;16.19;80.24
44453;BME280;30155;52.164;21.236;2023-07-28T21:17:10;99639.89;;;16.14;80.24
44453;BME280;30155;52.164;21.236;2023-07-28T21:29:40;99651.24;;;16.15;81.17
44453;BME280;30155;52.164;21.236;2023-07-28T21:35:53;99654.02;;;16.15;81.00
44453;BME280;30155;52.164;21.236;2023-07-28T21:42:09;99661.81;;;16.12;80.90
44453;BME280;30155;52.164;21.236;2023-07-28T21:54:03;99659.09;;;16.16;81.60
44453;BME280;30155;52.164;21.236;2023-07-28T21:59:08;99659.48;;;16.14;81.50
44453;BME280;30155;52.164;21.236;2023-07-28T22:04:00;99671.33;;;16.16;82.08
44453;BME280;30155;52.164;21.236;2023-07-28T22:08:52;99675.05;;;16.22;82.38
44453;BME280;30155;52.164;21.236;2023-07-28T22:13:43;99681.73;;;16.27;82.62
44453;BME280;30155;52.164;21.236;2023-07-28T22:18:36;99679.23;;;16.29;82.43
44453;BME280;30155;52.164;21.236;2023-07-28T22:23:29;99680.16;;;16.27;82.45
44453;BME280;30155;52.164;21.236;2023-07-28T22:28:21;99676.52;;;16.25;82.60
44453;BME280;30155;52.164;21.236;2023-07-28T22:33:12;99680.42;;;16.23;82.58
44453;BME280;30155;52.164;21.236;2023-07-28T22:38:04;99685.39;;;16.20;82.76
44453;BME280;30155;52.164;21.236;2023-07-28T22:42:56;99688.61;;;16.17;82.84
44453;BME280;30155;52.164;21.236;2023-07-28T22:47:48;99692.41;;;16.11;82.76
44453;BME280;30155;52.164;21.236;2023-07-28T22:52:39;99693.42;;;16.05;82.70
44453;BME280;30155;52.164;21.236;2023-07-28T22:57:31;99703.48;;;15.99;82.95
44453;BME280;30155;52.164;21.236;2023-07-28T23:02:22;99711.62;;;15.96;82.88
44453;BME280;30155;52.164;21.236;2023-07-28T23:07:14;99715.52;;;15.92;82.82
44453;BME280;30155;52.164;21.236;2023-07-28T23:12:08;99713.58;;;15.86;82.68
44453;BME280;30155;52.164;21.236;2023-07-28T23:16:59;99719.95;;;15.81;82.74
44453;BME280;30155;52.164;21.236;2023-07-28T23:21:51;99720.70;;;15.80;82.80
44453;BME280;30155;52.164;21.236;2023-07-28T23:26:42;99720.56;;;15.77;82.97
44453;BME280;30155;52.164;21.236;2023-07-28T23:31:34;99717.23;;;15.78;83.26
44453;BME280;30155;52.164;21.236;2023-07-28T23:36:25;99717.71;;;15.79;83.26
44453;BME280;30155;52.164;21.236;2023-07-28T23:41:17;99721.90;;;15.80;83.26
44453;BME280;30155;52.164;21.236;2023-07-28T23:46:09;99727.54;;;15.78;83.35
44453;BME280;30155;52.164;21.236;2023-07-28T23:51:01;99728.81;;;15.75;83.21
44453;BME280;30155;52.164;21.236;2023-07-28T23:55:53;99729.52;;;15.74;83.35
